createdAt,value
2022-08-25T00:00:58.113Z,23.65
2022-08-25T00:03:30.489Z,23.53
2022-08-25T00:06:06.734Z,23.46
2022-08-25T00:08:39.108Z,23.36
2022-08-25T00:11:13.943Z,23.44
2022-08-25T00:13:48.412Z,23.19
2022-08-25T00:16:20.568Z,23.16
2022-08-25T00:18:55.528Z,23.24
2022-08-25T00:21:29.333Z,23.04
2022-08-25T00:24:02.840Z,22.94
2022-08-25T00:26:39.005Z,22.91
2022-08-25T00:29:12.068Z,22.87
2022-08-25T00:31:45.378Z,22.86
2022-08-25T00:34:20.381Z,22.81
2022-08-25T00:36:52.827Z,22.79
2022-08-25T00:39:26.107Z,22.75
2022-08-25T00:41:59.714Z,22.70
2022-08-25T00:44:33.991Z,22.69
2022-08-25T00:47:06.915Z,22.64
2022-08-25T00:49:41.898Z,22.65
2022-08-25T00:52:19.881Z,22.64
2022-08-25T00:54:55.062Z,22.63
2022-08-25T00:57:34.488Z,22.63
2022-08-25T01:00:12.814Z,22.62
2022-08-25T01:02:45.105Z,22.62
2022-08-25T01:05:18.324Z,22.61
2022-08-25T01:07:51.639Z,22.59
2022-08-25T01:10:25.895Z,22.59
2022-08-25T01:13:01.009Z,22.55
2022-08-25T01:15:33.364Z,22.56
2022-08-25T01:18:05.667Z,22.58
2022-08-25T01:20:38.039Z,22.54
2022-08-25T01:23:10.875Z,22.55
2022-08-25T01:26:04.071Z,22.59
2022-08-25T01:28:36.564Z,22.59
2022-08-25T01:31:23.876Z,22.58
2022-08-25T01:33:42.806Z,22.53
2022-08-25T01:36:16.487Z,22.50
2022-08-25T01:38:48.987Z,22.47
2022-08-25T01:41:32.840Z,22.45
2022-08-25T01:44:08.793Z,22.46
2022-08-25T01:46:42.580Z,22.51
2022-08-25T01:49:14.600Z,22.59
2022-08-25T01:51:49.169Z,22.64
2022-08-25T01:54:20.549Z,22.67
2022-08-25T01:56:52.288Z,22.80
2022-08-25T01:59:25.778Z,22.72
2022-08-25T02:01:59.952Z,22.70
2022-08-25T02:04:33.059Z,22.66
2022-08-25T02:07:08.894Z,22.66
2022-08-25T02:09:41.220Z,22.65
2022-08-25T02:12:13.750Z,22.62
2022-08-25T02:14:47.512Z,22.62
2022-08-25T02:17:19.651Z,22.60
2022-08-25T02:19:51.926Z,22.58
2022-08-25T02:22:24.525Z,22.53
2022-08-25T02:24:56.876Z,22.51
2022-08-25T02:27:28.800Z,22.49
2022-08-25T02:30:00.930Z,22.47
2022-08-25T02:32:33.991Z,22.46
2022-08-25T02:35:06.812Z,22.47
2022-08-25T02:37:39.070Z,22.47
2022-08-25T02:40:11.962Z,22.45
2022-08-25T02:42:44.885Z,22.46
2022-08-25T02:45:17.129Z,22.51
2022-08-25T02:47:49.938Z,22.54
2022-08-25T02:50:22.206Z,22.60
2022-08-25T02:52:55.136Z,22.65
2022-08-25T02:55:27.203Z,22.66
2022-08-25T02:57:59.216Z,22.66
2022-08-25T03:00:31.482Z,22.69
2022-08-25T03:03:04.846Z,22.76
2022-08-25T03:05:36.861Z,22.82
2022-08-25T03:08:11.144Z,22.87
2022-08-25T03:10:43.324Z,22.97
2022-08-25T03:13:16.796Z,23.08
2022-08-25T03:15:49.457Z,23.12
2022-08-25T03:18:23.281Z,23.21
2022-08-25T03:20:57.021Z,23.30
2022-08-25T03:23:29.767Z,23.37
2022-08-25T03:26:19.436Z,23.50
2022-08-25T03:28:52.129Z,23.58
2022-08-25T03:31:28.008Z,23.67
2022-08-25T03:34:01.235Z,23.75
2022-08-25T03:36:33.389Z,23.82
2022-08-25T03:39:06.056Z,23.89
2022-08-25T03:41:38.270Z,23.96
2022-08-25T03:44:10.893Z,24.03
2022-08-25T03:46:45.628Z,24.10
2022-08-25T03:49:21.526Z,24.18
2022-08-25T03:51:55.491Z,24.34
2022-08-25T03:54:28.190Z,24.29
2022-08-25T03:57:00.401Z,24.36
2022-08-25T03:59:32.426Z,24.43
2022-08-25T04:02:04.581Z,24.52
2022-08-25T04:04:36.839Z,24.61
2022-08-25T04:07:09.174Z,24.68
2022-08-25T04:09:41.224Z,24.76
2022-08-25T04:12:13.360Z,24.82
2022-08-25T04:14:45.692Z,24.90
2022-08-25T04:17:17.921Z,24.98
2022-08-25T04:19:51.064Z,25.05
2022-08-25T04:22:24.097Z,25.13
2022-08-25T04:24:56.537Z,25.23
2022-08-25T04:27:28.868Z,25.34
2022-08-25T04:30:01.214Z,25.43
2022-08-25T04:32:33.762Z,25.49
2022-08-25T04:35:06.653Z,25.56
2022-08-25T04:37:38.665Z,25.63
2022-08-25T04:40:11.732Z,25.73
2022-08-25T04:42:45.386Z,25.79
2022-08-25T04:45:19.532Z,25.86
2022-08-25T04:47:54.974Z,25.95
2022-08-25T04:50:25.685Z,26.02
2022-08-25T04:52:57.998Z,26.10
2022-08-25T04:55:30.252Z,26.19
2022-08-25T04:58:03.195Z,26.26
2022-08-25T05:00:37.511Z,26.34
2022-08-25T05:03:10.091Z,26.39
2022-08-25T05:05:42.260Z,26.49
2022-08-25T05:08:14.523Z,26.54
2022-08-25T05:10:47.265Z,26.63
2022-08-25T05:13:19.544Z,26.71
2022-08-25T05:16:00.121Z,26.81
2022-08-25T05:18:33.800Z,26.90
2022-08-25T05:21:08.770Z,27.01
2022-08-25T05:23:42.275Z,27.09
2022-08-25T05:26:22.578Z,27.18
2022-08-25T05:28:56.754Z,27.23
2022-08-25T05:31:30.245Z,27.31
2022-08-25T05:34:10.551Z,27.39
2022-08-25T05:36:43.674Z,27.50
2022-08-25T05:39:16.037Z,27.59
2022-08-25T05:41:48.109Z,27.72
2022-08-25T05:44:21.300Z,27.83
2022-08-25T05:46:54.056Z,27.93
2022-08-25T05:49:27.852Z,28.03
2022-08-25T05:52:00.090Z,28.09
2022-08-25T05:54:32.175Z,28.20
2022-08-25T05:57:04.376Z,28.28
2022-08-25T05:59:36.540Z,28.43
2022-08-25T06:02:26.815Z,29.16
2022-08-25T06:04:59.099Z,30.01
2022-08-25T06:07:33.528Z,30.84
2022-08-25T06:10:08.271Z,31.37
2022-08-25T06:12:44.721Z,31.52
2022-08-25T06:15:19.853Z,31.46
2022-08-25T06:17:56.729Z,31.65
2022-08-25T06:20:29.677Z,32.07
2022-08-25T06:23:01.838Z,32.68
2022-08-25T06:25:34.105Z,33.49
2022-08-25T06:28:06.560Z,33.78
2022-08-25T06:30:40.971Z,33.64
2022-08-25T06:33:13.011Z,33.42
2022-08-25T06:35:46.124Z,33.65
2022-08-25T06:38:18.320Z,33.83
2022-08-25T06:40:52.211Z,34.09
2022-08-25T06:43:24.746Z,34.41
2022-08-25T06:45:56.931Z,34.84
2022-08-25T06:48:29.603Z,35.00
2022-08-25T06:51:03.677Z,35.25
2022-08-25T06:53:36.260Z,35.61
2022-08-25T06:56:08.963Z,36.26
2022-08-25T06:58:41.545Z,36.55
2022-08-25T07:01:21.928Z,37.12
2022-08-25T07:03:59.874Z,37.58
2022-08-25T07:06:36.120Z,38.20
2022-08-25T07:09:10.559Z,38.84
2022-08-25T07:11:42.623Z,39.17
2022-08-25T07:14:17.105Z,39.94
2022-08-25T07:16:50.255Z,38.73
2022-08-25T07:19:22.849Z,37.69
2022-08-25T07:21:55.677Z,36.71
2022-08-25T07:24:27.684Z,35.69
2022-08-25T07:26:59.791Z,34.83
2022-08-25T07:29:34.008Z,34.21
2022-08-25T07:32:07.275Z,33.78
2022-08-25T07:34:58.457Z,33.44
2022-08-25T07:37:47.935Z,33.14
2022-08-25T07:40:05.901Z,32.94
2022-08-25T07:42:38.287Z,32.74
2022-08-25T07:45:11.719Z,32.55
2022-08-25T07:47:44.284Z,32.38
2022-08-25T07:50:17.652Z,32.30
2022-08-25T07:52:59.086Z,32.23
2022-08-25T07:55:26.107Z,32.18
2022-08-25T07:58:01.309Z,32.18
2022-08-25T08:00:36.657Z,32.18
2022-08-25T08:03:15.955Z,32.16
2022-08-25T08:05:44.028Z,32.20
2022-08-25T08:08:17.115Z,32.21
2022-08-25T08:11:04.909Z,32.29
2022-08-25T08:13:26.760Z,32.27
2022-08-25T08:16:00.212Z,32.30
2022-08-25T08:18:33.243Z,32.31
2022-08-25T08:21:05.758Z,32.34
2022-08-25T08:23:39.133Z,32.32
2022-08-25T08:26:11.170Z,32.33
2022-08-25T08:28:43.650Z,32.36
2022-08-25T08:31:17.398Z,32.27
2022-08-25T08:33:51.942Z,32.17
2022-08-25T08:36:25.998Z,32.19
2022-08-25T08:38:58.384Z,32.20
2022-08-25T08:42:09.616Z,32.08
2022-08-25T08:44:38.730Z,32.07
2022-08-25T08:47:23.354Z,32.14
2022-08-25T08:50:01.507Z,32.08
2022-08-25T08:52:59.354Z,32.01
2022-08-25T08:55:42.502Z,31.89
2022-08-25T08:58:30.376Z,31.84
2022-08-25T09:01:03.273Z,31.93
2022-08-25T09:03:44.355Z,31.98
2022-08-25T09:06:23.672Z,32.05
2022-08-25T09:08:58.707Z,32.21
2022-08-25T09:11:49.140Z,32.43
2022-08-25T09:14:30.393Z,32.64
2022-08-25T09:17:31.391Z,32.79
2022-08-25T09:20:39.862Z,33.01
2022-08-25T09:23:24.149Z,33.26
2022-08-25T09:26:12.266Z,33.38
2022-08-25T09:28:55.035Z,33.35
2022-08-25T09:31:30.594Z,33.24
2022-08-25T09:34:05.288Z,33.23
2022-08-25T09:36:38.036Z,33.21
2022-08-25T09:39:10.309Z,33.16
2022-08-25T09:41:56.387Z,33.15
2022-08-25T09:44:32.057Z,33.20
2022-08-25T09:47:11.003Z,33.30
2022-08-25T09:49:47.148Z,33.33
2022-08-25T09:52:34.752Z,33.41
2022-08-25T09:55:16.242Z,33.54
2022-08-25T09:57:52.955Z,33.61
2022-08-25T10:00:29.669Z,33.65
2022-08-25T10:03:24.861Z,33.71
2022-08-25T10:06:00.693Z,33.86
2022-08-25T10:08:46.098Z,33.96
2022-08-25T10:11:40.515Z,34.14
2022-08-25T10:14:21.622Z,34.15
2022-08-25T10:16:54.643Z,34.15
2022-08-25T10:19:30.642Z,34.01
2022-08-25T10:22:11.565Z,33.94
2022-08-25T10:24:44.383Z,33.90
2022-08-25T10:27:31.707Z,33.70
2022-08-25T10:30:11.062Z,33.49
2022-08-25T10:32:52.451Z,32.99
2022-08-25T10:35:31.889Z,32.52
2022-08-25T10:38:27.200Z,32.42
2022-08-25T10:41:12.635Z,32.45
2022-08-25T10:44:10.929Z,32.63
2022-08-25T10:46:49.005Z,32.89
2022-08-25T10:49:23.699Z,33.11
2022-08-25T10:52:04.659Z,33.29
2022-08-25T10:54:39.511Z,33.50
2022-08-25T10:57:32.158Z,33.74
2022-08-25T11:00:14.691Z,33.90
2022-08-25T11:03:06.329Z,34.06
2022-08-25T11:06:00.157Z,34.14
2022-08-25T11:08:43.891Z,34.15
2022-08-25T11:11:40.249Z,34.13
2022-08-25T11:14:15.442Z,34.14
2022-08-25T11:17:06.140Z,34.33
2022-08-25T11:19:44.005Z,34.50
2022-08-25T11:22:22.107Z,34.76
2022-08-25T11:25:15.562Z,34.90
2022-08-25T11:28:16.337Z,35.08
2022-08-25T11:30:49.759Z,35.07
2022-08-25T11:33:23.622Z,34.96
2022-08-25T11:35:59.026Z,34.81
2022-08-25T11:39:01.401Z,34.61
2022-08-25T11:41:56.147Z,34.37
2022-08-25T11:44:55.093Z,34.18
2022-08-25T11:47:41.726Z,34.05
2022-08-25T11:50:35.122Z,34.09
2022-08-25T11:53:28.146Z,34.21
2022-08-25T11:56:00.858Z,34.35
2022-08-25T11:58:49.699Z,34.55
2022-08-25T12:01:44.361Z,34.68
2022-08-25T12:04:34.985Z,34.78
2022-08-25T12:07:13.567Z,35.01
2022-08-25T12:09:55.307Z,35.11
2022-08-25T12:12:34.269Z,35.19
2022-08-25T12:15:27.496Z,35.33
2022-08-25T12:18:23.828Z,35.79
2022-08-25T12:21:01.064Z,38.02
2022-08-25T12:23:39.887Z,40.23
2022-08-25T12:26:27.937Z,42.35
2022-08-25T12:29:13.098Z,44.35
2022-08-25T12:32:00.571Z,45.92
2022-08-25T12:34:55.287Z,48.01
2022-08-25T12:37:27.877Z,48.74
2022-08-25T12:40:05.133Z,49.69
2022-08-25T12:42:45.594Z,48.33
2022-08-25T12:45:35.723Z,47.58
2022-08-25T12:48:32.260Z,48.28
2022-08-25T12:51:10.590Z,49.35
2022-08-25T12:53:48.913Z,50.71
2022-08-25T12:56:39.578Z,51.97
2022-08-25T12:59:18.873Z,52.53
2022-08-25T13:02:09.662Z,52.71
2022-08-25T13:04:51.776Z,53.17
2022-08-25T13:07:39.984Z,53.31
2022-08-25T13:10:31.121Z,53.53
2022-08-25T13:13:12.095Z,53.56
2022-08-25T13:15:48.774Z,53.73
2022-08-25T13:18:28.932Z,54.13
2022-08-25T13:21:23.694Z,54.35
2022-08-25T13:24:01.336Z,54.82
2022-08-25T13:26:36.109Z,54.96
2022-08-25T13:29:12.823Z,54.86
2022-08-25T13:32:01.480Z,54.30
2022-08-25T13:34:39.377Z,53.69
2022-08-25T13:37:32.576Z,52.18
2022-08-25T13:40:18.134Z,49.48
2022-08-25T13:42:55.981Z,46.74
2022-08-25T13:45:30.066Z,44.46
2022-08-25T13:48:04.139Z,43.04
2022-08-25T13:50:40.454Z,43.89
2022-08-25T13:53:26.288Z,45.10
2022-08-25T13:56:01.307Z,46.27
2022-08-25T13:58:45.011Z,45.90
2022-08-25T14:01:22.396Z,44.57
2022-08-25T14:03:49.818Z,43.22
2022-08-25T14:06:28.305Z,42.77
2022-08-25T14:09:04.013Z,43.72
2022-08-25T14:11:45.350Z,45.19
2022-08-25T14:14:30.768Z,45.99
2022-08-25T14:17:16.378Z,46.61
2022-08-25T14:19:42.950Z,47.30
2022-08-25T14:22:17.023Z,47.17
2022-08-25T14:24:49.015Z,47.53
2022-08-25T14:27:23.118Z,48.17
2022-08-25T14:29:55.379Z,48.45
2022-08-25T14:32:27.678Z,48.71
2022-08-25T14:35:03.764Z,48.54
2022-08-25T14:37:34.762Z,48.31
2022-08-25T14:40:07.632Z,48.23
2022-08-25T14:42:42.119Z,48.18
2022-08-25T14:45:15.457Z,48.19
2022-08-25T14:47:49.856Z,48.06
2022-08-25T14:50:22.724Z,47.76
2022-08-25T14:52:58.263Z,47.31
2022-08-25T14:55:31.526Z,45.80
2022-08-25T14:58:04.690Z,44.10
2022-08-25T15:00:41.585Z,42.48
2022-08-25T15:03:19.692Z,41.06
2022-08-25T15:05:52.626Z,39.81
2022-08-25T15:08:43.691Z,38.69
2022-08-25T15:11:15.871Z,37.82
2022-08-25T15:13:50.185Z,37.06
2022-08-25T15:16:35.389Z,36.49
2022-08-25T15:19:10.613Z,35.98
2022-08-25T15:21:44.765Z,35.45
2022-08-25T15:24:18.083Z,35.04
2022-08-25T15:29:29.884Z,34.42
2022-08-25T15:32:04.081Z,34.13
2022-08-25T15:34:38.619Z,33.94
2022-08-25T15:37:14.939Z,33.72
2022-08-25T15:39:49.328Z,33.52
2022-08-25T15:42:21.809Z,33.30
2022-08-25T15:44:54.305Z,33.12
2022-08-25T15:47:27.763Z,32.95
2022-08-25T15:50:07.657Z,32.75
2022-08-25T15:52:47.610Z,32.56
2022-08-25T15:55:14.694Z,32.37
2022-08-25T15:57:47.631Z,32.21
2022-08-25T16:00:22.141Z,32.05
2022-08-25T16:02:54.277Z,31.90
2022-08-25T16:05:26.545Z,31.72
2022-08-25T16:07:59.429Z,31.55
2022-08-25T16:10:38.420Z,31.40
2022-08-25T16:13:12.358Z,31.27
2022-08-25T16:15:47.782Z,31.15
2022-08-25T16:18:22.720Z,31.00
2022-08-25T16:20:54.961Z,30.85
2022-08-25T16:23:27.415Z,30.75
2022-08-25T16:25:59.875Z,30.61
2022-08-25T16:28:33.093Z,30.50
2022-08-25T16:31:06.028Z,30.40
2022-08-25T16:33:39.900Z,30.29
2022-08-25T16:36:15.489Z,30.16
2022-08-25T16:38:49.075Z,30.08
2022-08-25T16:41:27.252Z,29.94
2022-08-25T16:43:59.753Z,29.78
2022-08-25T16:46:32.077Z,29.62
2022-08-25T16:49:06.471Z,29.49
2022-08-25T16:51:41.239Z,29.38
2022-08-25T16:54:33.428Z,29.32
2022-08-25T16:57:05.939Z,29.23
2022-08-25T16:59:38.252Z,29.20
2022-08-25T17:02:10.912Z,29.12
2022-08-25T17:04:43.393Z,29.07
2022-08-25T17:07:23.592Z,28.97
2022-08-25T17:09:51.164Z,28.91
2022-08-25T17:12:23.395Z,29.02
2022-08-25T17:14:57.606Z,28.75
2022-08-25T17:17:30.990Z,28.68
2022-08-25T17:20:05.097Z,28.59
2022-08-25T17:22:37.210Z,28.47
2022-08-25T17:25:11.097Z,28.36
2022-08-25T17:27:43.469Z,28.27
2022-08-25T17:30:15.828Z,28.20
2022-08-25T17:32:51.116Z,28.19
2022-08-25T17:35:23.009Z,28.15
2022-08-25T17:37:55.657Z,28.09
2022-08-25T17:40:28.011Z,28.04
2022-08-25T17:43:00.797Z,27.99
2022-08-25T17:45:33.570Z,27.94
2022-08-25T17:48:06.639Z,27.90
2022-08-25T17:50:39.782Z,27.83
2022-08-25T17:53:13.665Z,27.78
2022-08-25T17:55:47.976Z,27.73
2022-08-25T17:58:20.338Z,27.70
2022-08-25T18:00:52.745Z,27.69
2022-08-25T18:03:25.634Z,27.67
2022-08-25T18:05:59.222Z,27.64
2022-08-25T18:08:35.126Z,27.61
2022-08-25T18:11:06.736Z,27.59
2022-08-25T18:13:42.611Z,27.59
2022-08-25T18:16:15.574Z,27.60
2022-08-25T18:18:48.099Z,27.60
2022-08-25T18:21:21.331Z,27.56
2022-08-25T18:23:56.016Z,27.51
2022-08-25T18:26:28.519Z,27.47
2022-08-25T18:29:00.831Z,27.45
2022-08-25T18:31:33.462Z,27.37
2022-08-25T18:34:07.385Z,27.33
2022-08-25T18:36:39.738Z,27.28
2022-08-25T18:39:34.452Z,27.24
2022-08-25T18:42:06.432Z,27.21
2022-08-25T18:44:38.963Z,27.18
2022-08-25T18:47:12.238Z,27.13
2022-08-25T18:49:44.661Z,27.06
2022-08-25T18:52:18.062Z,27.06
2022-08-25T18:54:50.750Z,27.06
2022-08-25T18:57:24.694Z,27.03
2022-08-25T18:59:56.700Z,27.00
2022-08-25T19:02:31.713Z,26.97
2022-08-25T19:05:07.761Z,26.92
2022-08-25T19:07:40.237Z,26.90
2022-08-25T19:10:12.288Z,26.82
2022-08-25T19:12:44.839Z,26.77
2022-08-25T19:15:17.292Z,26.75
2022-08-25T19:17:49.612Z,26.73
2022-08-25T19:20:23.309Z,26.73
2022-08-25T19:22:55.596Z,26.77
2022-08-25T19:25:33.223Z,26.83
2022-08-25T19:28:02.533Z,26.98
2022-08-25T19:30:35.773Z,27.04
2022-08-25T19:33:11.688Z,27.07
2022-08-25T19:35:50.300Z,27.11
2022-08-25T19:38:33.455Z,27.08
2022-08-25T19:40:59.767Z,27.08
2022-08-25T19:43:31.863Z,27.05
2022-08-25T19:46:04.068Z,27.05
2022-08-25T19:48:37.322Z,27.02
2022-08-25T19:51:11.768Z,26.98
2022-08-25T19:53:44.570Z,26.93
2022-08-25T19:56:16.696Z,26.92
2022-08-25T19:58:49.400Z,26.87
2022-08-25T20:01:22.470Z,26.85
2022-08-25T20:04:10.577Z,26.86
2022-08-25T20:06:43.109Z,26.81
2022-08-25T20:09:36.071Z,26.81
2022-08-25T20:11:51.796Z,26.83
2022-08-25T20:14:23.990Z,26.79
2022-08-25T20:16:56.250Z,26.75
2022-08-25T20:19:28.589Z,26.72
2022-08-25T20:22:00.761Z,26.68
2022-08-25T20:24:50.984Z,26.68
2022-08-25T20:27:26.691Z,26.62
2022-08-25T20:29:59.727Z,26.58
2022-08-25T20:32:35.695Z,26.51
2022-08-25T20:35:10.331Z,26.51
2022-08-25T20:37:46.056Z,26.44
2022-08-25T20:40:25.513Z,26.40
2022-08-25T20:42:57.872Z,26.35
2022-08-25T20:45:30.116Z,26.31
2022-08-25T20:48:02.203Z,26.22
2022-08-25T20:50:34.685Z,26.23
2022-08-25T20:53:10.166Z,26.21
2022-08-25T20:55:43.656Z,26.23
2022-08-25T20:58:16.879Z,26.28
2022-08-25T21:00:49.033Z,26.28
2022-08-25T21:03:21.257Z,26.32
2022-08-25T21:05:53.588Z,26.32
2022-08-25T21:08:26.210Z,26.32
2022-08-25T21:10:58.269Z,26.26
2022-08-25T21:13:32.249Z,26.12
2022-08-25T21:16:05.706Z,26.05
2022-08-25T21:18:38.797Z,25.97
2022-08-25T21:21:15.236Z,25.88
2022-08-25T21:23:50.971Z,25.81
2022-08-25T21:26:24.143Z,25.70
2022-08-25T21:29:03.826Z,25.82
2022-08-25T21:31:37.083Z,25.59
2022-08-25T21:34:13.465Z,25.50
2022-08-25T21:36:46.173Z,25.41
2022-08-25T21:39:18.927Z,25.37
2022-08-25T21:41:51.045Z,25.30
2022-08-25T21:44:25.646Z,25.21
2022-08-25T21:46:58.367Z,25.13
2022-08-25T21:49:30.734Z,25.08
2022-08-25T21:52:04.753Z,25.07
2022-08-25T21:54:37.727Z,25.03
2022-08-25T21:57:09.736Z,25.02
2022-08-25T21:59:43.524Z,24.99
2022-08-25T22:02:20.538Z,24.98
2022-08-25T22:04:54.950Z,24.98
2022-08-25T22:07:28.116Z,24.96
2022-08-25T22:10:01.834Z,24.91
2022-08-25T22:12:34.000Z,24.87
2022-08-25T22:15:07.163Z,24.79
2022-08-25T22:17:41.213Z,24.74
2022-08-25T22:20:15.456Z,24.70
2022-08-25T22:22:48.215Z,24.66
2022-08-25T22:25:20.426Z,24.58
2022-08-25T22:27:56.442Z,24.54
2022-08-25T22:30:28.367Z,24.49
2022-08-25T22:33:00.816Z,24.44
2022-08-25T22:35:35.238Z,24.37
2022-08-25T22:38:12.398Z,24.32
2022-08-25T22:40:42.088Z,24.28
2022-08-25T22:43:14.165Z,24.42
2022-08-25T22:45:46.555Z,24.19
2022-08-25T22:48:18.647Z,24.12
2022-08-25T22:50:50.678Z,24.06
2022-08-25T22:53:24.369Z,24.05
2022-08-25T22:55:59.150Z,24.01
2022-08-25T22:58:31.142Z,23.98
2022-08-25T23:01:03.890Z,24.00
2022-08-25T23:03:36.392Z,24.01
2022-08-25T23:06:22.121Z,24.00
2022-08-25T23:08:52.589Z,23.99
2022-08-25T23:11:28.883Z,23.94
2022-08-25T23:14:02.526Z,23.91
2022-08-25T23:16:34.958Z,23.89
2022-08-25T23:19:07.487Z,23.84
2022-08-25T23:21:56.975Z,23.79
2022-08-25T23:24:30.982Z,23.74
2022-08-25T23:27:05.092Z,23.70
2022-08-25T23:29:39.969Z,23.70
2022-08-25T23:32:14.472Z,23.68
2022-08-25T23:34:47.379Z,23.66
2022-08-25T23:37:19.580Z,23.65
2022-08-25T23:39:51.758Z,23.58
2022-08-25T23:42:23.915Z,23.56
2022-08-25T23:44:56.127Z,23.53
2022-08-25T23:47:28.551Z,23.50
2022-08-25T23:50:00.800Z,23.45
2022-08-25T23:52:33.536Z,23.39
2022-08-25T23:55:06.527Z,23.39
2022-08-25T23:57:39.639Z,23.39
